ADDS TAF Board INFO
 
 

IDs: Format: Expanded Condensed

KTPA - Tampa Intl Arpt, FL, US

Issued at 0300 UTC 20 Aug 2014
Time0353Z20/05Z20/06Z20/07Z20/08Z20/09Z20/10Z20/11Z20/12Z20/13Z20/14Z20/15Z20/16Z20/17Z
TypeOBSPRVLPRVLPRVLPRVLPRVLPRVLPRVLPRVLPRVLPRVLPRVLPRVLPRVL
Vis10>6>6>6>6>6>6>6>6>6>6>6>6>6
Cig----------------------------
CoverCLRFEWFEWFEWFEWFEWFEWFEWFEWFEWFEWFEWSCTSCT
FltCat--VFRVFRVFRVFRVFRVFRVFRVFRVFRVFRVFRVFRVFR
Wx----------------------------
WDir250260260260260260260260260260260260270270
WSpd44444444444499
WGst----------------------------
R01/19
XWnd44444444444499
HWnd-1-1-1-1-1-1-1-1-1-1-1-1-0-0
R10/28
XWnd-1-1-1-1-1-1-1-1-1-1-1-1-0-0
HWnd-4-4-4-4-4-4-4-4-4-4-4-4-9-9
Raw TAF
KTPA 200300Z 2003/2024 26004KT P6SM FEW250
  FM201600 27009KT P6SM SCT035 SCT150


Raw METAR
KTPA 200353Z 25004KT 10SM CLR 28/23 A3002 RMK AO2 SLP166 T02830228 $

TAF Board Legend

Hazard Green Yellow Red Magenta
Visibility (sm) >5 >2.99 >0.99 <=0.99
Ceiling (100 ft) >30 >9.99 >4.99 <=4.99
Wind Speed (kt) <10 <20 <30 >=30
Wind Gust (kt) <10 <20 <30 >=30
Weather No Wx Reported Light precipitation Moderate precipitation Heavy precipitation
Flight Category VFR MVFR IFR LIFR

Page loaded:  04:50 UTC  |   09:50 PM Pacific  |   10:50 PM Mountain  |   11:50 PM Central  |   12:50 AM Eastern

 

ADVISORIES

FORECASTS

FORECASTS

OBSERVATIONS

USER TOOLS

ABOUT US